Combienbar, Australia
Current Conditions -  °F | °C
As of 7:00 AM on Wednesday 22 Oct 2014 (Local Time) from YMER Reporting Station
Clear Clear  
Wind Chill: 50°   Ceiling: Unl
Heat Index: 50°   Visibility: 6mi
Dew Point: 46°   Wind: 3mph
Humidity: 87%   Direction: 220°SW
Pressure: 30.27"   Gusts: NA
Location:  37.42°S, 149.01°E
Report Text: YMER 212000Z AUTO 22003KT 9999 // NCD 10/08 Q1025
Loading
Personal Weather Stations






























Interactive Weather Map
Tropical Storm Tracking
New forecast layout! Learn more

10-Day Weather Forecast

Advertisements
Track Severe Weather on mobile